Airfield :
LOGIN :

Register | Disclaimer

   EN    FR    IT 

 










Legend :    VFR   Marginal VFR   IFR   Intensive IFR   Very Intensive IFR
Visi :
Ceiling :
>= 8 km
>= 3000ft
5 to 8 km
1000 to 3000 ft
1500m to 5 km
500 to 1000 ft
800 to 1500m
200 to 500 ft
< 800m
< 200 ft
Symbols :   Thunderstorms  Fog  Heavy snow  Heavy precipitations  Wind > 20 kt
SIGMETs :     Misc.  Thunderstorms  Icing  Turbulence  Mountain Waves  Volcanic Ashes






- Airport Elevation : 39 ft
- IATA code : TRS


LIPQ - Friuli Venezia Giulia Apt. Trieste

CURRENT METAR :
  • 031550Z AUTO 20005KT 180V240 9999 FEW110/// 14/04 Q1014

EXPIRED METARs :
  • 031520Z AUTO 22006KT 190V250 9999 NCD 15/04 Q1013
  • 031450Z AUTO 21007KT 170V240 9999 NCD 15/05 Q1013
  • 031420Z AUTO 22008KT 180V240 9999 NCD 14/05 Q1013
  • 031350Z AUTO 22010KT 190V260 9999 NCD 15/06 Q1013
  • 031320Z AUTO 24010KT 9999 NCD 15/06 Q1014

TAF TAF LIPQ
Valid from the 03 at 12:00 until the 04 at 12:00 UTC


031100Z 0312/0412 VRB06KT CAVOK



MET'MAP, your aeronautical weather chart ! - Copyright ORBIFLY December 2007 - Disclaimer

ORBIFLY MET'MAP TEAM :

Programming & Development : Alexandra Zaïnal
Concept & original design : Baudouin d'Aumeries
Assistance for programming : Marc-Olivier Méhu
Technical & hardware support : Manuel Goepfert

Contact : metmap@orbifly.com




SOURCES & CREDITS :

   NOAA